sensor_id;sensor_type;location;lat;lon;timestamp;pressure;altitude;pressure_sealevel;temperature;humidity
49611;BME280;35515;48.766;9.176;2023-07-13T00:00:47;98280.28;;;22.98;47.67
49611;BME280;35515;48.766;9.176;2023-07-13T00:03:14;98278.34;;;22.98;48.54
49611;BME280;35515;48.766;9.176;2023-07-13T00:05:40;98278.16;;;22.90;48.50
49611;BME280;35515;48.766;9.176;2023-07-13T00:08:09;98275.00;;;22.72;47.39
49611;BME280;35515;48.766;9.176;2023-07-13T00:10:39;98276.69;;;23.27;48.83
49611;BME280;35515;48.766;9.176;2023-07-13T00:13:06;98285.91;;;23.41;48.06
49611;BME280;35515;48.766;9.176;2023-07-13T00:15:33;98279.06;;;23.58;47.86
49611;BME280;35515;48.766;9.176;2023-07-13T00:18:01;98273.75;;;23.42;45.88
49611;BME280;35515;48.766;9.176;2023-07-13T00:20:27;98267.28;;;23.28;47.78
49611;BME280;35515;48.766;9.176;2023-07-13T00:22:54;98275.91;;;23.45;46.19
49611;BME280;35515;48.766;9.176;2023-07-13T00:25:23;98270.44;;;23.40;48.27
49611;BME280;35515;48.766;9.176;2023-07-13T00:27:51;98267.34;;;23.23;47.03
49611;BME280;35515;48.766;9.176;2023-07-13T00:30:18;98272.44;;;23.10;46.53
49611;BME280;35515;48.766;9.176;2023-07-13T00:32:44;98276.13;;;22.71;46.32
49611;BME280;35515;48.766;9.176;2023-07-13T00:35:13;98271.81;;;22.89;48.28
49611;BME280;35515;48.766;9.176;2023-07-13T00:37:40;98265.19;;;22.90;46.31
49611;BME280;35515;48.766;9.176;2023-07-13T00:40:10;98279.28;;;22.88;47.95
49611;BME280;35515;48.766;9.176;2023-07-13T00:42:38;98268.66;;;23.01;47.83
49611;BME280;35515;48.766;9.176;2023-07-13T00:45:07;98277.34;;;23.18;45.12
49611;BME280;35515;48.766;9.176;2023-07-13T00:47:53;98281.53;;;23.11;45.24
49611;BME280;35515;48.766;9.176;2023-07-13T00:50:21;98284.84;;;22.83;45.44
49611;BME280;35515;48.766;9.176;2023-07-13T00:52:49;98283.25;;;22.77;45.86
49611;BME280;35515;48.766;9.176;2023-07-13T00:55:17;98286.13;;;22.62;46.26
49611;BME280;35515;48.766;9.176;2023-07-13T00:57:45;98280.72;;;22.81;47.73
49611;BME280;35515;48.766;9.176;2023-07-13T01:00:13;98290.25;;;22.94;45.89
49611;BME280;35515;48.766;9.176;2023-07-13T01:02:42;98288.38;;;22.89;46.62
49611;BME280;35515;48.766;9.176;2023-07-13T01:05:09;98303.31;;;23.12;47.15
49611;BME280;35515;48.766;9.176;2023-07-13T01:07:36;98293.28;;;22.97;47.10
49611;BME280;35515;48.766;9.176;2023-07-13T01:10:04;98298.44;;;23.04;46.96
49611;BME280;35515;48.766;9.176;2023-07-13T01:12:30;98290.75;;;23.01;46.69
49611;BME280;35515;48.766;9.176;2023-07-13T01:14:59;98295.38;;;23.05;47.26
49611;BME280;35515;48.766;9.176;2023-07-13T01:17:27;98298.28;;;23.25;46.43
49611;BME280;35515;48.766;9.176;2023-07-13T01:19:54;98303.91;;;23.14;46.83
49611;BME280;35515;48.766;9.176;2023-07-13T01:22:22;98300.03;;;23.15;46.23
49611;BME280;35515;48.766;9.176;2023-07-13T01:24:51;98300.56;;;23.12;46.47
49611;BME280;35515;48.766;9.176;2023-07-13T01:27:22;98295.72;;;22.99;46.25
49611;BME280;35515;48.766;9.176;2023-07-13T01:29:50;98295.16;;;23.02;46.23
49611;BME280;35515;48.766;9.176;2023-07-13T01:32:20;98286.94;;;22.97;47.11
49611;BME280;35515;48.766;9.176;2023-07-13T01:34:49;98297.00;;;22.82;46.66
49611;BME280;35515;48.766;9.176;2023-07-13T01:37:15;98301.94;;;22.85;47.17
49611;BME280;35515;48.766;9.176;2023-07-13T01:39:43;98304.91;;;22.65;47.86
49611;BME280;35515;48.766;9.176;2023-07-13T01:42:10;98304.34;;;22.63;48.14
49611;BME280;35515;48.766;9.176;2023-07-13T01:44:36;98308.44;;;22.36;48.53
49611;BME280;35515;48.766;9.176;2023-07-13T01:47:03;98309.59;;;22.64;48.56
49611;BME280;35515;48.766;9.176;2023-07-13T01:49:30;98311.19;;;22.36;48.47
49611;BME280;35515;48.766;9.176;2023-07-13T01:51:57;98306.34;;;22.57;48.97
49611;BME280;35515;48.766;9.176;2023-07-13T01:54:23;98305.94;;;22.40;48.84
49611;BME280;35515;48.766;9.176;2023-07-13T01:56:51;98300.44;;;22.69;48.80
49611;BME280;35515;48.766;9.176;2023-07-13T01:59:18;98304.88;;;22.35;49.17
49611;BME280;35515;48.766;9.176;2023-07-13T02:01:44;98311.75;;;22.33;49.90
49611;BME280;35515;48.766;9.176;2023-07-13T02:04:11;98314.50;;;22.33;50.11
49611;BME280;35515;48.766;9.176;2023-07-13T02:06:37;98319.44;;;22.41;50.05
49611;BME280;35515;48.766;9.176;2023-07-13T02:09:04;98321.88;;;22.48;49.92
49611;BME280;35515;48.766;9.176;2023-07-13T02:11:32;98313.09;;;21.96;49.75
49611;BME280;35515;48.766;9.176;2023-07-13T02:14:00;98321.19;;;22.21;50.41
49611;BME280;35515;48.766;9.176;2023-07-13T02:16:27;98329.41;;;22.37;49.88
49611;BME280;35515;48.766;9.176;2023-07-13T02:18:54;98328.41;;;22.17;50.56
49611;BME280;35515;48.766;9.176;2023-07-13T02:21:21;98323.59;;;22.38;50.01
49611;BME280;35515;48.766;9.176;2023-07-13T02:23:47;98327.31;;;22.13;50.98
49611;BME280;35515;48.766;9.176;2023-07-13T02:26:14;98325.81;;;22.36;50.49
49611;BME280;35515;48.766;9.176;2023-07-13T02:28:41;98325.78;;;21.92;51.21
49611;BME280;35515;48.766;9.176;2023-07-13T02:31:11;98327.78;;;21.81;51.87
49611;BME280;35515;48.766;9.176;2023-07-13T02:33:38;98329.03;;;22.04;51.37
49611;BME280;35515;48.766;9.176;2023-07-13T02:36:05;98329.69;;;21.85;52.67
49611;BME280;35515;48.766;9.176;2023-07-13T02:38:32;98328.69;;;22.16;51.43
49611;BME280;35515;48.766;9.176;2023-07-13T02:41:00;98329.19;;;22.23;51.13
49611;BME280;35515;48.766;9.176;2023-07-13T02:43:26;98335.22;;;22.30;51.02
49611;BME280;35515;48.766;9.176;2023-07-13T02:45:53;98340.72;;;21.80;51.30
49611;BME280;35515;48.766;9.176;2023-07-13T02:48:21;98336.41;;;21.64;52.00
49611;BME280;35515;48.766;9.176;2023-07-13T02:50:48;98329.06;;;21.18;53.07
49611;BME280;35515;48.766;9.176;2023-07-13T02:53:14;98335.53;;;21.68;52.13
49611;BME280;35515;48.766;9.176;2023-07-13T02:55:41;98336.84;;;21.86;52.13
49611;BME280;35515;48.766;9.176;2023-07-13T02:58:12;98340.69;;;21.85;51.42
49611;BME280;35515;48.766;9.176;2023-07-13T03:00:42;98336.50;;;22.03;51.66
49611;BME280;35515;48.766;9.176;2023-07-13T03:03:08;98343.09;;;22.02;50.71
49611;BME280;35515;48.766;9.176;2023-07-13T03:05:37;98343.63;;;22.04;51.36
49611;BME280;35515;48.766;9.176;2023-07-13T03:08:03;98342.88;;;21.94;51.40
49611;BME280;35515;48.766;9.176;2023-07-13T03:10:31;98348.97;;;21.85;51.65
49611;BME280;35515;48.766;9.176;2023-07-13T03:12:57;98350.66;;;21.81;51.55
49611;BME280;35515;48.766;9.176;2023-07-13T03:15:24;98348.66;;;21.97;51.19
49611;BME280;35515;48.766;9.176;2023-07-13T03:17:51;98356.84;;;22.13;50.79
49611;BME280;35515;48.766;9.176;2023-07-13T03:20:18;98347.75;;;22.07;50.57
49611;BME280;35515;48.766;9.176;2023-07-13T03:22:46;98353.97;;;21.78;51.23
49611;BME280;35515;48.766;9.176;2023-07-13T03:25:12;98359.50;;;21.78;51.70
49611;BME280;35515;48.766;9.176;2023-07-13T03:27:39;98363.88;;;21.84;51.50
49611;BME280;35515;48.766;9.176;2023-07-13T03:30:07;98364.41;;;21.86;51.39
49611;BME280;35515;48.766;9.176;2023-07-13T03:32:33;98374.88;;;21.90;50.96
49611;BME280;35515;48.766;9.176;2023-07-13T03:35:00;98369.81;;;22.12;50.70
49611;BME280;35515;48.766;9.176;2023-07-13T03:37:26;98371.50;;;22.03;50.54
49611;BME280;35515;48.766;9.176;2023-07-13T03:39:54;98380.91;;;22.02;50.44
49611;BME280;35515;48.766;9.176;2023-07-13T03:42:21;98378.25;;;21.71;51.00
49611;BME280;35515;48.766;9.176;2023-07-13T03:44:47;98374.13;;;21.74;50.99
49611;BME280;35515;48.766;9.176;2023-07-13T03:47:17;98374.66;;;21.81;50.59
49611;BME280;35515;48.766;9.176;2023-07-13T03:49:44;98379.88;;;21.82;50.88
49611;BME280;35515;48.766;9.176;2023-07-13T03:52:11;98383.66;;;22.02;50.12
49611;BME280;35515;48.766;9.176;2023-07-13T03:54:37;98376.50;;;22.01;50.74
49611;BME280;35515;48.766;9.176;2023-07-13T03:57:06;98384.50;;;21.97;50.44
49611;BME280;35515;48.766;9.176;2023-07-13T03:59:33;98390.00;;;22.02;50.29
49611;BME280;35515;48.766;9.176;2023-07-13T04:02:00;98385.97;;;21.79;50.63
49611;BME280;35515;48.766;9.176;2023-07-13T04:04:27;98385.88;;;22.00;50.71
49611;BME280;35515;48.766;9.176;2023-07-13T04:06:53;98395.81;;;21.96;50.44
49611;BME280;35515;48.766;9.176;2023-07-13T04:09:20;98394.28;;;21.64;51.52
49611;BME280;35515;48.766;9.176;2023-07-13T04:11:46;98392.06;;;21.66;51.33
49611;BME280;35515;48.766;9.176;2023-07-13T04:14:14;98392.09;;;21.56;51.94
49611;BME280;35515;48.766;9.176;2023-07-13T04:16:41;98397.63;;;21.56;51.23
49611;BME280;35515;48.766;9.176;2023-07-13T04:19:08;98389.88;;;21.58;52.20
49611;BME280;35515;48.766;9.176;2023-07-13T04:21:36;98398.63;;;21.80;51.94
49611;BME280;35515;48.766;9.176;2023-07-13T04:24:03;98395.84;;;21.85;51.67
49611;BME280;35515;48.766;9.176;2023-07-13T04:26:30;98397.31;;;21.42;53.00
49611;BME280;35515;48.766;9.176;2023-07-13T04:28:57;98401.50;;;21.34;53.33
49611;BME280;35515;48.766;9.176;2023-07-13T04:31:25;98402.56;;;21.64;53.25
49611;BME280;35515;48.766;9.176;2023-07-13T04:33:51;98407.47;;;21.82;52.08
49611;BME280;35515;48.766;9.176;2023-07-13T04:36:18;98407.63;;;22.07;51.83
49611;BME280;35515;48.766;9.176;2023-07-13T04:38:45;98400.44;;;22.05;51.64
49611;BME280;35515;48.766;9.176;2023-07-13T04:41:12;98405.47;;;21.93;52.17
49611;BME280;35515;48.766;9.176;2023-07-13T04:43:39;98403.31;;;21.80;52.29
49611;BME280;35515;48.766;9.176;2023-07-13T04:46:08;98405.47;;;21.98;52.22
49611;BME280;35515;48.766;9.176;2023-07-13T04:48:37;98413.78;;;21.88;52.30
49611;BME280;35515;48.766;9.176;2023-07-13T04:51:04;98405.34;;;21.23;52.96
49611;BME280;35515;48.766;9.176;2023-07-13T04:53:32;98405.38;;;21.02;54.50
49611;BME280;35515;48.766;9.176;2023-07-13T04:55:59;98411.94;;;21.47;53.83
49611;BME280;35515;48.766;9.176;2023-07-13T04:58:28;98403.66;;;21.58;53.47
49611;BME280;35515;48.766;9.176;2023-07-13T05:00:59;98411.38;;;21.50;52.53
49611;BME280;35515;48.766;9.176;2023-07-13T05:03:26;98408.13;;;21.07;53.70
49611;BME280;35515;48.766;9.176;2023-07-13T05:05:58;98413.06;;;20.84;54.26
49611;BME280;35515;48.766;9.176;2023-07-13T05:08:25;98420.22;;;20.75;54.38
49611;BME280;35515;48.766;9.176;2023-07-13T05:10:52;98412.47;;;20.62;55.54
49611;BME280;35515;48.766;9.176;2023-07-13T05:13:19;98417.44;;;20.54;55.26
49611;BME280;35515;48.766;9.176;2023-07-13T05:15:47;98424.00;;;20.48;56.02
49611;BME280;35515;48.766;9.176;2023-07-13T05:18:13;98427.06;;;20.52;56.31
49611;BME280;35515;48.766;9.176;2023-07-13T05:20:40;98426.00;;;20.63;55.89
49611;BME280;35515;48.766;9.176;2023-07-13T05:23:08;98424.03;;;20.64;55.66
49611;BME280;35515;48.766;9.176;2023-07-13T05:25:34;98422.66;;;20.61;55.85
49611;BME280;35515;48.766;9.176;2023-07-13T05:28:01;98424.31;;;20.57;55.02
49611;BME280;35515;48.766;9.176;2023-07-13T05:30:27;98419.59;;;20.52;55.47
49611;BME280;35515;48.766;9.176;2023-07-13T05:32:54;98418.53;;;20.59;55.27
49611;BME280;35515;48.766;9.176;2023-07-13T05:35:20;98424.59;;;20.55;53.03
49611;BME280;35515;48.766;9.176;2023-07-13T05:37:47;98419.63;;;20.47;54.46
49611;BME280;35515;48.766;9.176;2023-07-13T05:40:15;98419.88;;;20.46;53.91
49611;BME280;35515;48.766;9.176;2023-07-13T05:42:41;98425.69;;;20.54;53.49
49611;BME280;35515;48.766;9.176;2023-07-13T05:45:08;98435.03;;;20.53;52.40
49611;BME280;35515;48.766;9.176;2023-07-13T05:47:35;98428.72;;;20.53;52.29
49611;BME280;35515;48.766;9.176;2023-07-13T05:50:01;98431.19;;;20.54;52.53
49611;BME280;35515;48.766;9.176;2023-07-13T05:52:28;98432.84;;;20.50;52.43
49611;BME280;35515;48.766;9.176;2023-07-13T05:54:54;98438.59;;;20.59;51.96
49611;BME280;35515;48.766;9.176;2023-07-13T05:57:22;98435.03;;;20.59;52.98
49611;BME280;35515;48.766;9.176;2023-07-13T05:59:49;98431.75;;;20.57;52.66
49611;BME280;35515;48.766;9.176;2023-07-13T06:02:15;98436.69;;;20.60;52.37
49611;BME280;35515;48.766;9.176;2023-07-13T06:04:42;98439.19;;;20.61;52.18
49611;BME280;35515;48.766;9.176;2023-07-13T06:07:08;98440.81;;;20.52;53.03
49611;BME280;35515;48.766;9.176;2023-07-13T06:09:35;98444.94;;;20.54;53.57
49611;BME280;35515;48.766;9.176;2023-07-13T06:12:01;98451.56;;;20.59;52.72
49611;BME280;35515;48.766;9.176;2023-07-13T06:14:29;98453.22;;;20.60;52.36
49611;BME280;35515;48.766;9.176;2023-07-13T06:16:56;98449.91;;;20.58;51.46
49611;BME280;35515;48.766;9.176;2023-07-13T06:19:22;98454.03;;;20.60;51.74
49611;BME280;35515;48.766;9.176;2023-07-13T06:21:49;98458.97;;;20.53;51.98
49611;BME280;35515;48.766;9.176;2023-07-13T06:24:15;98463.66;;;20.58;50.79
49611;BME280;35515;48.766;9.176;2023-07-13T06:26:42;98469.44;;;20.56;50.50
49611;BME280;35515;48.766;9.176;2023-07-13T06:29:08;98467.22;;;20.48;52.39
49611;BME280;35515;48.766;9.176;2023-07-13T06:31:36;98464.19;;;20.49;51.07
49611;BME280;35515;48.766;9.176;2023-07-13T06:34:02;98470.81;;;20.53;50.66
49611;BME280;35515;48.766;9.176;2023-07-13T06:36:29;98482.91;;;20.58;51.19
49611;BME280;35515;48.766;9.176;2023-07-13T06:38:55;98471.38;;;20.66;49.38
49611;BME280;35515;48.766;9.176;2023-07-13T06:41:22;98477.16;;;20.64;49.67
49611;BME280;35515;48.766;9.176;2023-07-13T06:43:51;98477.44;;;20.68;49.90
49611;BME280;35515;48.766;9.176;2023-07-13T06:46:17;98489.34;;;20.79;50.02
49611;BME280;35515;48.766;9.176;2023-07-13T06:48:45;98481.09;;;20.84;49.31
49611;BME280;35515;48.766;9.176;2023-07-13T06:51:12;98483.56;;;20.80;49.41
49611;BME280;35515;48.766;9.176;2023-07-13T06:53:38;98485.22;;;20.92;48.60
49611;BME280;35515;48.766;9.176;2023-07-13T06:56:05;98483.03;;;20.94;48.75
49611;BME280;35515;48.766;9.176;2023-07-13T06:58:33;98484.69;;;21.00;49.28
49611;BME280;35515;48.766;9.176;2023-07-13T07:01:00;98476.44;;;21.05;48.78
49611;BME280;35515;48.766;9.176;2023-07-13T07:03:26;98483.59;;;20.96;48.73
49611;BME280;35515;48.766;9.176;2023-07-13T07:06:00;98484.69;;;21.05;47.49
49611;BME280;35515;48.766;9.176;2023-07-13T07:08:26;98484.13;;;20.98;47.70
49611;BME280;35515;48.766;9.176;2023-07-13T07:10:53;98490.75;;;21.23;46.43
49611;BME280;35515;48.766;9.176;2023-07-13T07:13:20;98490.47;;;21.14;47.10
49611;BME280;35515;48.766;9.176;2023-07-13T07:15:46;98482.75;;;21.05;47.08
49611;BME280;35515;48.766;9.176;2023-07-13T07:18:12;98485.25;;;21.23;46.54
49611;BME280;35515;48.766;9.176;2023-07-13T07:20:39;98489.13;;;21.11;45.86
49611;BME280;35515;48.766;9.176;2023-07-13T07:23:07;98494.06;;;21.09;45.24
49611;BME280;35515;48.766;9.176;2023-07-13T07:25:33;98486.59;;;21.04;45.20
49611;BME280;35515;48.766;9.176;2023-07-13T07:28:02;98487.19;;;21.22;43.96
49611;BME280;35515;48.766;9.176;2023-07-13T07:30:29;98491.59;;;21.18;43.74
49611;BME280;35515;48.766;9.176;2023-07-13T07:32:56;98488.53;;;21.30;43.58
49611;BME280;35515;48.766;9.176;2023-07-13T07:35:22;98487.72;;;21.14;44.98
49611;BME280;35515;48.766;9.176;2023-07-13T07:37:49;98481.66;;;21.12;44.64
49611;BME280;35515;48.766;9.176;2023-07-13T07:40:17;98477.00;;;21.23;44.27
49611;BME280;35515;48.766;9.176;2023-07-13T07:42:43;98483.88;;;21.30;44.78
49611;BME280;35515;48.766;9.176;2023-07-13T07:45:10;98479.75;;;21.38;45.45
49611;BME280;35515;48.766;9.176;2023-07-13T07:47:37;98481.38;;;21.39;45.09
49611;BME280;35515;48.766;9.176;2023-07-13T07:50:04;98488.25;;;21.36;45.08
49611;BME280;35515;48.766;9.176;2023-07-13T07:52:31;98484.69;;;21.51;43.42
49611;BME280;35515;48.766;9.176;2023-07-13T07:54:57;98487.44;;;21.41;43.95
49611;BME280;35515;48.766;9.176;2023-07-13T07:57:25;98482.78;;;21.31;42.55
49611;BME280;35515;48.766;9.176;2023-07-13T07:59:52;98486.06;;;21.28;43.86
49611;BME280;35515;48.766;9.176;2023-07-13T08:02:18;98487.72;;;21.29;43.59
49611;BME280;35515;48.766;9.176;2023-07-13T08:04:45;98497.34;;;21.52;41.81
49611;BME280;35515;48.766;9.176;2023-07-13T08:07:11;98498.22;;;21.58;41.48
49611;BME280;35515;48.766;9.176;2023-07-13T08:09:38;98498.19;;;21.68;40.94
49611;BME280;35515;48.766;9.176;2023-07-13T08:12:05;98502.59;;;21.69;40.97
49611;BME280;35515;48.766;9.176;2023-07-13T08:14:33;98494.03;;;21.71;41.29
49611;BME280;35515;48.766;9.176;2023-07-13T08:16:59;98494.59;;;21.78;40.69
49611;BME280;35515;48.766;9.176;2023-07-13T08:19:26;98490.19;;;21.67;41.72
49611;BME280;35515;48.766;9.176;2023-07-13T08:21:52;98494.06;;;21.66;41.00
49611;BME280;35515;48.766;9.176;2023-07-13T08:24:21;98494.63;;;21.68;41.16
49611;BME280;35515;48.766;9.176;2023-07-13T08:26:48;98500.13;;;21.78;41.05
49611;BME280;35515;48.766;9.176;2023-07-13T08:29:14;98496.56;;;21.73;42.80
49611;BME280;35515;48.766;9.176;2023-07-13T08:31:42;98494.88;;;21.77;41.26
49611;BME280;35515;48.766;9.176;2023-07-13T08:34:09;98497.28;;;22.04;40.81
49611;BME280;35515;48.766;9.176;2023-07-13T08:36:35;98495.34;;;22.04;40.52
49611;BME280;35515;48.766;9.176;2023-07-13T08:39:02;98484.66;;;21.93;41.15
49611;BME280;35515;48.766;9.176;2023-07-13T08:41:29;98489.03;;;21.99;41.07
49611;BME280;35515;48.766;9.176;2023-07-13T08:43:58;98492.94;;;21.87;41.87
49611;BME280;35515;48.766;9.176;2023-07-13T08:46:29;98495.63;;;22.03;41.30
49611;BME280;35515;48.766;9.176;2023-07-13T08:49:02;98491.25;;;22.02;41.50
49611;BME280;35515;48.766;9.176;2023-07-13T08:51:35;98492.25;;;22.27;40.92
49611;BME280;35515;48.766;9.176;2023-07-13T08:54:05;98488.91;;;22.35;40.94
49611;BME280;35515;48.766;9.176;2023-07-13T08:56:35;98497.44;;;22.44;40.78
49611;BME280;35515;48.766;9.176;2023-07-13T08:59:06;98495.25;;;22.41;40.90
49611;BME280;35515;48.766;9.176;2023-07-13T09:01:47;98499.94;;;22.35;41.62
49611;BME280;35515;48.766;9.176;2023-07-13T09:04:22;98491.13;;;22.28;41.87
49611;BME280;35515;48.766;9.176;2023-07-13T09:06:55;98498.28;;;22.39;41.55
49611;BME280;35515;48.766;9.176;2023-07-13T09:09:32;98498.16;;;22.70;40.92
49611;BME280;35515;48.766;9.176;2023-07-13T09:12:08;98513.25;;;22.83;40.35
49611;BME280;35515;48.766;9.176;2023-07-13T09:14:42;98501.22;;;22.63;41.18
49611;BME280;35515;48.766;9.176;2023-07-13T09:17:13;98505.94;;;22.52;41.25
49611;BME280;35515;48.766;9.176;2023-07-13T09:19:43;98503.50;;;22.46;41.31
49611;BME280;35515;48.766;9.176;2023-07-13T09:22:16;98500.97;;;22.54;41.25
49611;BME280;35515;48.766;9.176;2023-07-13T09:24:52;98505.09;;;22.57;41.10
49611;BME280;35515;48.766;9.176;2023-07-13T09:27:22;98509.81;;;22.57;41.31
49611;BME280;35515;48.766;9.176;2023-07-13T09:29:54;98508.88;;;22.77;40.83
49611;BME280;35515;48.766;9.176;2023-07-13T09:32:24;98503.66;;;22.70;40.86
49611;BME280;35515;48.766;9.176;2023-07-13T09:34:54;98502.06;;;22.59;41.65
49611;BME280;35515;48.766;9.176;2023-07-13T09:37:22;98495.09;;;22.71;40.43
49611;BME280;35515;48.766;9.176;2023-07-13T09:39:54;98502.44;;;22.86;40.35
49611;BME280;35515;48.766;9.176;2023-07-13T09:42:23;98504.16;;;22.77;40.93
49611;BME280;35515;48.766;9.176;2023-07-13T09:44:53;98513.00;;;22.79;39.76
49611;BME280;35515;48.766;9.176;2023-07-13T09:47:22;98502.63;;;22.61;40.84
49611;BME280;35515;48.766;9.176;2023-07-13T09:49:56;98508.47;;;22.49;40.18
49611;BME280;35515;48.766;9.176;2023-07-13T09:52:24;98507.56;;;22.59;40.25
49611;BME280;35515;48.766;9.176;2023-07-13T09:54:52;98492.06;;;22.68;40.41
49611;BME280;35515;48.766;9.176;2023-07-13T09:57:25;98503.25;;;22.87;39.68
49611;BME280;35515;48.766;9.176;2023-07-13T09:59:54;98501.88;;;22.90;39.76
49611;BME280;35515;48.766;9.176;2023-07-13T10:02:26;98499.25;;;23.14;38.45
49611;BME280;35515;48.766;9.176;2023-07-13T10:05:00;98501.81;;;23.00;39.12
49611;BME280;35515;48.766;9.176;2023-07-13T10:07:28;98491.91;;;22.94;39.57
49611;BME280;35515;48.766;9.176;2023-07-13T10:09:56;98499.91;;;22.95;39.50
49611;BME280;35515;48.766;9.176;2023-07-13T10:12:23;98499.81;;;23.05;38.67
49611;BME280;35515;48.766;9.176;2023-07-13T10:14:52;98494.34;;;23.00;38.53
49611;BME280;35515;48.766;9.176;2023-07-13T10:17:26;98501.78;;;23.05;39.28
49611;BME280;35515;48.766;9.176;2023-07-13T10:19:59;98501.81;;;23.00;40.02
49611;BME280;35515;48.766;9.176;2023-07-13T10:22:35;98491.78;;;23.14;39.06
49611;BME280;35515;48.766;9.176;2023-07-13T10:25:13;98504.22;;;23.17;38.48
49611;BME280;35515;48.766;9.176;2023-07-13T10:27:42;98493.94;;;23.23;38.75
49611;BME280;35515;48.766;9.176;2023-07-13T10:30:14;98498.97;;;23.15;39.02
49611;BME280;35515;48.766;9.176;2023-07-13T10:32:42;98491.16;;;23.23;38.65
49611;BME280;35515;48.766;9.176;2023-07-13T10:35:11;98488.41;;;23.23;39.77
49611;BME280;35515;48.766;9.176;2023-07-13T10:37:42;98490.25;;;23.32;38.74
49611;BME280;35515;48.766;9.176;2023-07-13T10:40:13;98498.22;;;23.39;38.75
49611;BME280;35515;48.766;9.176;2023-07-13T10:42:44;98498.44;;;23.48;38.25
49611;BME280;35515;48.766;9.176;2023-07-13T10:45:14;98493.19;;;23.46;38.87
49611;BME280;35515;48.766;9.176;2023-07-13T10:47:41;98489.34;;;23.42;38.25
49611;BME280;35515;48.766;9.176;2023-07-13T10:50:17;98493.66;;;23.53;37.14
49611;BME280;35515;48.766;9.176;2023-07-13T10:52:46;98488.13;;;23.53;37.23
49611;BME280;35515;48.766;9.176;2023-07-13T10:55:33;98486.59;;;23.42;37.61
49611;BME280;35515;48.766;9.176;2023-07-13T10:58:02;98483.78;;;23.47;37.77
49611;BME280;35515;48.766;9.176;2023-07-13T11:00:32;98484.06;;;23.75;37.46
49611;BME280;35515;48.766;9.176;2023-07-13T11:03:13;98489.47;;;23.85;36.64
49611;BME280;35515;48.766;9.176;2023-07-13T11:05:42;98474.28;;;23.83;36.43
49611;BME280;35515;48.766;9.176;2023-07-13T11:08:16;98486.50;;;23.82;36.42
49611;BME280;35515;48.766;9.176;2023-07-13T11:10:48;98477.59;;;23.85;36.37
49611;BME280;35515;48.766;9.176;2023-07-13T11:13:38;98478.19;;;23.82;37.22
49611;BME280;35515;48.766;9.176;2023-07-13T11:16:34;98462.88;;;23.65;36.63
49611;BME280;35515;48.766;9.176;2023-07-13T11:22:15;98468.69;;;23.64;37.38
49611;BME280;35515;48.766;9.176;2023-07-13T11:25:02;98476.16;;;23.63;37.64
49611;BME280;35515;48.766;9.176;2023-07-13T11:27:50;98464.94;;;23.79;37.02
49611;BME280;35515;48.766;9.176;2023-07-13T11:30:35;98466.47;;;23.66;38.01
49611;BME280;35515;48.766;9.176;2023-07-13T11:33:07;98458.09;;;23.71;37.48
49611;BME280;35515;48.766;9.176;2023-07-13T11:35:42;98454.22;;;23.72;37.43
49611;BME280;35515;48.766;9.176;2023-07-13T11:38:16;98455.28;;;23.76;37.37
49611;BME280;35515;48.766;9.176;2023-07-13T11:40:44;98458.88;;;23.77;37.24
49611;BME280;35515;48.766;9.176;2023-07-13T11:43:14;98453.00;;;23.83;37.15
49611;BME280;35515;48.766;9.176;2023-07-13T11:45:40;98450.25;;;23.83;37.52
49611;BME280;35515;48.766;9.176;2023-07-13T11:48:18;98454.19;;;24.01;36.61
49611;BME280;35515;48.766;9.176;2023-07-13T11:50:53;98455.03;;;24.02;36.80
49611;BME280;35515;48.766;9.176;2023-07-13T11:53:23;98460.22;;;24.09;36.15
49611;BME280;35515;48.766;9.176;2023-07-13T11:55:52;98459.97;;;24.05;36.02
49611;BME280;35515;48.766;9.176;2023-07-13T11:58:21;98458.19;;;24.14;36.26
49611;BME280;35515;48.766;9.176;2023-07-13T12:00:49;98457.84;;;24.21;36.26
49611;BME280;35515;48.766;9.176;2023-07-13T12:03:21;98460.44;;;24.36;35.84
49611;BME280;35515;48.766;9.176;2023-07-13T12:05:56;98458.53;;;24.32;36.04
49611;BME280;35515;48.766;9.176;2023-07-13T12:08:25;98463.09;;;24.42;36.21
49611;BME280;35515;48.766;9.176;2023-07-13T12:11:04;98449.41;;;24.31;36.28
49611;BME280;35515;48.766;9.176;2023-07-13T12:13:35;98451.00;;;24.13;36.56
49611;BME280;35515;48.766;9.176;2023-07-13T12:16:10;98460.66;;;24.16;36.83
49611;BME280;35515;48.766;9.176;2023-07-13T12:18:38;98449.31;;;24.17;36.48
49611;BME280;35515;48.766;9.176;2023-07-13T12:21:05;98454.59;;;24.38;36.15
49611;BME280;35515;48.766;9.176;2023-07-13T12:23:35;98456.56;;;24.57;35.09
49611;BME280;35515;48.766;9.176;2023-07-13T12:26:03;98443.75;;;24.61;35.04
49611;BME280;35515;48.766;9.176;2023-07-13T12:28:33;98441.22;;;24.64;34.80
49611;BME280;35515;48.766;9.176;2023-07-13T12:31:02;98450.56;;;24.68;34.65
49611;BME280;35515;48.766;9.176;2023-07-13T12:33:30;98447.91;;;24.63;34.20
49611;BME280;35515;48.766;9.176;2023-07-13T12:36:00;98445.25;;;24.72;34.31
49611;BME280;35515;48.766;9.176;2023-07-13T12:38:29;98445.38;;;24.62;34.43
49611;BME280;35515;48.766;9.176;2023-07-13T12:40:57;98443.19;;;24.64;34.23
49611;BME280;35515;48.766;9.176;2023-07-13T12:43:25;98444.88;;;24.60;34.38
49611;BME280;35515;48.766;9.176;2023-07-13T12:45:56;98455.66;;;24.61;33.98
49611;BME280;35515;48.766;9.176;2023-07-13T12:48:23;98459.66;;;24.74;34.13
49611;BME280;35515;48.766;9.176;2023-07-13T12:50:53;98448.44;;;24.60;34.00
49611;BME280;35515;48.766;9.176;2023-07-13T12:53:22;98446.97;;;24.49;34.50
49611;BME280;35515;48.766;9.176;2023-07-13T12:55:53;98452.22;;;24.69;34.44
49611;BME280;35515;48.766;9.176;2023-07-13T12:58:26;98440.19;;;24.79;33.52
49611;BME280;35515;48.766;9.176;2023-07-13T13:00:54;98436.72;;;24.87;33.44
49611;BME280;35515;48.766;9.176;2023-07-13T13:03:26;98435.88;;;24.87;33.55
49611;BME280;35515;48.766;9.176;2023-07-13T13:05:58;98431.69;;;25.09;33.19
49611;BME280;35515;48.766;9.176;2023-07-13T13:08:26;98437.25;;;25.23;32.91
49611;BME280;35515;48.766;9.176;2023-07-13T13:10:52;98448.97;;;25.19;32.86